3CA3 weather

Behring Ranch Heliport
Colusa, California, United States

Public forecast

Using degrees Fahrenheit for public forecast. Weather courtesy of forecast.io.

Closest aviation weather report (METAR) to Behring Ranch Heliport

Closest report is Oroville Municipal Airport, 17.6 nm (32.6 km) ENE. Retrieved 2019/10/23 10:53 UTC (30 minutes ago):

KOVE 231053Z AUTO 32005KT 10SM CLR 18/08 A3002 RMK AO2 SLP167 T01830078

Closest aviation forecast (TAF) to Behring Ranch Heliport

Forecast is more than 6 hours old.

Closest forecast is Beale Air Force Base, 26.9 nm (49.8 km) ESE. Retrieved 2019-10-23 03:06 UTC (8 hours ago):

TAF KBAB 230301Z 2303/2409 VRB06KT 9999 SKC QNH3000INS BECMG 2317/2318 34009KT 9999 SKC QNH2991INS TEMPO 2320/2324 34012G18KT TX31/2322Z TN11/2314Z